createdAt,value
2019-03-26T00:00:19.529Z,1023.39
2019-03-26T00:01:19.504Z,1023.45
2019-03-26T00:02:19.472Z,1023.45
2019-03-26T00:03:19.453Z,1023.43
2019-03-26T00:04:19.427Z,1023.41
2019-03-26T00:05:19.475Z,1023.42
2019-03-26T00:06:19.376Z,1023.44
2019-03-26T00:07:19.348Z,1023.44
2019-03-26T00:08:19.325Z,1023.45
2019-03-26T00:09:19.305Z,1023.47
2019-03-26T00:10:19.278Z,1023.48
2019-03-26T00:11:19.252Z,1023.49
2019-03-26T00:12:19.232Z,1023.50
2019-03-26T00:13:19.201Z,1023.48
2019-03-26T00:14:19.179Z,1023.59
2019-03-26T00:15:19.160Z,1023.54
2019-03-26T00:16:19.133Z,1023.55
2019-03-26T00:17:19.105Z,1023.52
2019-03-26T00:18:19.080Z,1023.52
2019-03-26T00:19:19.058Z,1023.54
2019-03-26T00:20:19.032Z,1023.57
2019-03-26T00:21:19.011Z,1023.55
2019-03-26T00:22:18.985Z,1023.56
2019-03-26T00:23:18.959Z,1023.57
2019-03-26T00:24:18.937Z,1023.62
2019-03-26T00:25:18.913Z,1023.60
2019-03-26T00:26:18.886Z,1023.57
2019-03-26T00:27:18.864Z,1023.62
2019-03-26T00:28:18.844Z,1023.67
2019-03-26T00:29:18.816Z,1023.65
2019-03-26T00:30:18.788Z,1023.65
2019-03-26T00:31:18.767Z,1023.60
2019-03-26T00:32:18.743Z,1023.58
2019-03-26T00:33:18.723Z,1023.58
2019-03-26T00:34:19.817Z,1023.59
2019-03-26T00:35:18.668Z,1023.57
2019-03-26T00:36:18.645Z,1023.59
2019-03-26T00:37:18.619Z,1023.62
2019-03-26T00:38:18.596Z,1023.60
2019-03-26T00:39:18.572Z,1023.57
2019-03-26T00:40:18.551Z,1023.55
2019-03-26T00:41:18.525Z,1023.54
2019-03-26T00:42:18.499Z,1023.54
2019-03-26T00:43:18.478Z,1023.55
2019-03-26T00:44:18.450Z,1023.56
2019-03-26T00:45:18.426Z,1023.56
2019-03-26T00:46:18.403Z,1023.59
2019-03-26T00:47:18.384Z,1023.56
2019-03-26T00:48:18.360Z,1023.60
2019-03-26T00:49:18.336Z,1023.62
2019-03-26T00:50:18.320Z,1023.66
2019-03-26T00:51:18.284Z,1023.62
2019-03-26T00:52:18.259Z,1023.65
2019-03-26T00:53:18.252Z,1023.63
2019-03-26T00:54:18.212Z,1023.63
2019-03-26T00:55:22.766Z,1023.65
2019-03-26T00:56:18.162Z,1023.62
2019-03-26T00:57:18.137Z,1023.63
2019-03-26T00:58:18.112Z,1023.63
2019-03-26T00:59:18.092Z,1023.63
2019-03-26T01:00:18.064Z,1023.65
2019-03-26T01:01:18.041Z,1023.66
2019-03-26T01:02:18.014Z,1023.66
2019-03-26T01:03:17.996Z,1023.65
2019-03-26T01:04:17.976Z,1023.70
2019-03-26T01:05:17.942Z,1023.72
2019-03-26T01:06:17.919Z,1023.76
2019-03-26T01:07:17.908Z,1023.77
2019-03-26T01:08:17.871Z,1023.77
2019-03-26T01:09:17.849Z,1023.75
2019-03-26T01:10:17.827Z,1023.80
2019-03-26T01:11:17.803Z,1023.76
2019-03-26T01:12:17.772Z,1023.80
2019-03-26T01:13:17.748Z,1023.81
2019-03-26T01:14:17.723Z,1023.82
2019-03-26T01:15:17.700Z,1023.77
2019-03-26T01:16:17.688Z,1023.85
2019-03-26T01:17:17.650Z,1023.84
2019-03-26T01:18:17.625Z,1023.89
2019-03-26T01:19:17.602Z,1023.88
2019-03-26T01:20:17.589Z,1023.88
2019-03-26T01:21:17.554Z,1023.87
2019-03-26T01:22:17.529Z,1023.82
2019-03-26T01:23:17.512Z,1023.87
2019-03-26T01:24:17.482Z,1023.83
2019-03-26T01:25:17.456Z,1023.84
2019-03-26T01:26:17.442Z,1023.89
2019-03-26T01:27:17.409Z,1023.85
2019-03-26T01:28:17.386Z,1023.82
2019-03-26T01:29:17.360Z,1023.82
2019-03-26T01:30:17.339Z,1023.83
2019-03-26T01:31:17.320Z,1023.82
2019-03-26T01:32:17.286Z,1023.87
2019-03-26T01:33:17.263Z,1023.83
2019-03-26T01:34:17.248Z,1023.88
2019-03-26T01:35:17.216Z,1023.86
2019-03-26T01:36:17.191Z,1023.84
2019-03-26T01:37:17.177Z,1023.86
2019-03-26T01:38:17.141Z,1023.91
2019-03-26T01:39:17.122Z,1023.90
2019-03-26T01:40:17.092Z,1023.92
2019-03-26T01:41:17.068Z,1023.93
2019-03-26T01:42:17.047Z,1023.96
2019-03-26T01:43:17.020Z,1023.97
2019-03-26T01:44:16.999Z,1023.94
2019-03-26T01:45:16.971Z,1023.93
2019-03-26T01:46:16.959Z,1023.96
2019-03-26T01:47:16.930Z,1023.97
2019-03-26T01:48:16.899Z,1023.96
2019-03-26T01:49:16.878Z,1023.98
2019-03-26T01:50:16.850Z,1023.98
2019-03-26T01:51:16.837Z,1023.96
2019-03-26T01:52:16.801Z,1023.94
2019-03-26T01:53:16.775Z,1023.92
2019-03-26T01:54:16.751Z,1023.93
2019-03-26T01:55:16.726Z,1023.90
2019-03-26T01:56:16.702Z,1023.92
2019-03-26T01:57:16.677Z,1023.94
2019-03-26T01:58:16.651Z,1023.93
2019-03-26T01:59:16.638Z,1023.90
2019-03-26T02:00:16.618Z,1023.92
2019-03-26T02:01:16.581Z,1023.91
2019-03-26T02:02:16.557Z,1023.92
2019-03-26T02:03:16.532Z,1023.94
2019-03-26T02:04:16.517Z,1023.94
2019-03-26T02:05:16.484Z,1023.93
2019-03-26T02:06:16.468Z,1023.92
2019-03-26T02:07:16.435Z,1023.93
2019-03-26T02:08:16.417Z,1023.89
2019-03-26T02:09:16.384Z,1023.93
2019-03-26T02:10:16.361Z,1023.94
2019-03-26T02:11:16.338Z,1023.95
2019-03-26T02:12:16.313Z,1023.93
2019-03-26T02:13:16.291Z,1023.92
2019-03-26T02:14:16.266Z,1023.96
2019-03-26T02:15:16.243Z,1023.91
2019-03-26T02:16:16.215Z,1023.93
2019-03-26T02:17:16.196Z,1023.97
2019-03-26T02:18:16.168Z,1023.93
2019-03-26T02:19:16.145Z,1023.89
2019-03-26T02:20:16.120Z,1023.90
2019-03-26T02:21:16.095Z,1023.85
2019-03-26T02:22:16.071Z,1023.84
2019-03-26T02:23:16.052Z,1023.82
2019-03-26T02:24:16.023Z,1023.89
2019-03-26T02:25:15.999Z,1023.91
2019-03-26T02:26:15.974Z,1023.90
2019-03-26T02:27:15.951Z,1023.91
2019-03-26T02:28:15.926Z,1023.94
2019-03-26T02:29:15.902Z,1023.98
2019-03-26T02:30:15.883Z,1023.98
2019-03-26T02:31:15.855Z,1024.00
2019-03-26T02:32:15.834Z,1023.97
2019-03-26T02:33:15.806Z,1023.98
2019-03-26T02:34:15.787Z,1024.02
2019-03-26T02:35:18.419Z,1023.97
2019-03-26T02:36:15.747Z,1023.90
2019-03-26T02:37:15.709Z,1023.90
2019-03-26T02:38:15.690Z,1023.86
2019-03-26T02:39:15.675Z,1023.83
2019-03-26T02:40:15.637Z,1023.81
2019-03-26T02:41:15.613Z,1023.83
2019-03-26T02:42:15.592Z,1023.79
2019-03-26T02:43:15.564Z,1023.82
2019-03-26T02:44:15.548Z,1023.79
2019-03-26T02:45:15.517Z,1023.78
2019-03-26T02:46:15.492Z,1023.80
2019-03-26T02:47:15.470Z,1023.80
2019-03-26T02:48:15.449Z,1023.76
2019-03-26T02:49:15.429Z,1023.76
2019-03-26T02:50:15.397Z,1023.77
2019-03-26T02:51:15.372Z,1023.73
2019-03-26T02:52:15.348Z,1023.78
2019-03-26T02:53:15.326Z,1023.80
2019-03-26T02:54:15.303Z,1023.77
2019-03-26T02:55:15.338Z,1023.81
2019-03-26T02:56:15.253Z,1023.81
2019-03-26T02:57:15.228Z,1023.83
2019-03-26T02:58:15.206Z,1023.89
2019-03-26T02:59:15.199Z,1023.83
2019-03-26T03:00:15.160Z,1023.84
2019-03-26T03:01:15.139Z,1023.85
2019-03-26T03:02:15.115Z,1023.90
2019-03-26T03:03:15.084Z,1023.85
2019-03-26T03:04:15.063Z,1023.86
2019-03-26T03:05:15.035Z,1023.92
2019-03-26T03:06:15.013Z,1023.87
2019-03-26T03:07:14.987Z,1023.88
2019-03-26T03:08:14.979Z,1023.89
2019-03-26T03:09:14.939Z,1023.89
2019-03-26T03:10:14.915Z,1023.91
2019-03-26T03:11:14.897Z,1023.90
2019-03-26T03:12:14.866Z,1023.90
2019-03-26T03:13:14.846Z,1023.89
2019-03-26T03:14:14.820Z,1023.91
2019-03-26T03:15:14.798Z,1023.89
2019-03-26T03:16:14.769Z,1023.84
2019-03-26T03:17:14.752Z,1023.83
2019-03-26T03:18:14.720Z,1023.81
2019-03-26T03:19:16.035Z,1023.76
2019-03-26T03:20:14.676Z,1023.80
2019-03-26T03:21:14.649Z,1023.79
2019-03-26T03:22:14.626Z,1023.83
2019-03-26T03:23:14.607Z,1023.84
2019-03-26T03:24:14.578Z,1023.83
2019-03-26T03:25:14.552Z,1023.87
2019-03-26T03:26:14.527Z,1023.88
2019-03-26T03:27:14.508Z,1023.88
2019-03-26T03:28:14.486Z,1023.86
2019-03-26T03:29:14.453Z,1023.88
2019-03-26T03:30:14.431Z,1023.89
2019-03-26T03:31:14.407Z,1023.85
2019-03-26T03:32:14.391Z,1023.88
2019-03-26T03:33:14.356Z,1023.88
2019-03-26T03:34:14.351Z,1023.86
2019-03-26T03:35:14.308Z,1023.87
2019-03-26T03:36:14.285Z,1023.87
2019-03-26T03:37:14.265Z,1023.84
2019-03-26T03:38:14.240Z,1023.81
2019-03-26T03:39:14.209Z,1023.86
2019-03-26T03:40:14.187Z,1023.85
2019-03-26T03:41:14.171Z,1023.84
2019-03-26T03:42:14.141Z,1023.85
2019-03-26T03:43:14.122Z,1023.82
2019-03-26T03:44:14.089Z,1023.85
2019-03-26T03:45:14.064Z,1023.88
2019-03-26T03:46:14.040Z,1023.89
2019-03-26T03:47:14.019Z,1023.85
2019-03-26T03:48:14.017Z,1023.85
2019-03-26T03:49:13.966Z,1023.86
2019-03-26T03:50:13.942Z,1023.89
2019-03-26T03:51:13.922Z,1023.89
2019-03-26T03:52:13.893Z,1023.91
2019-03-26T03:53:13.869Z,1023.90
2019-03-26T03:54:13.846Z,1023.95
2019-03-26T03:55:13.819Z,1023.92
2019-03-26T03:56:13.799Z,1023.94
2019-03-26T03:57:13.771Z,1023.98
2019-03-26T03:58:13.754Z,1023.97
2019-03-26T03:59:13.726Z,1024.00
2019-03-26T04:00:13.718Z,1023.98
2019-03-26T04:01:13.675Z,1024.00
2019-03-26T04:02:13.650Z,1023.98
2019-03-26T04:03:13.625Z,1023.96
2019-03-26T04:04:13.600Z,1023.96
2019-03-26T04:05:13.578Z,1023.97
2019-03-26T04:06:13.552Z,1023.94
2019-03-26T04:07:13.531Z,1023.94
2019-03-26T04:08:13.502Z,1023.91
2019-03-26T04:09:13.484Z,1023.88
2019-03-26T04:10:13.459Z,1023.89
2019-03-26T04:11:13.430Z,1023.89
2019-03-26T04:12:13.407Z,1023.91
2019-03-26T04:13:13.395Z,1023.89
2019-03-26T04:14:13.366Z,1023.88
2019-03-26T04:15:13.335Z,1023.88
2019-03-26T04:16:13.309Z,1023.89
2019-03-26T04:17:13.284Z,1023.83
2019-03-26T04:18:13.281Z,1023.79
2019-03-26T04:19:13.249Z,1023.76
2019-03-26T04:20:13.211Z,1023.79
2019-03-26T04:21:13.187Z,1023.80
2019-03-26T04:22:13.161Z,1023.80
2019-03-26T04:23:13.137Z,1023.82
2019-03-26T04:24:13.114Z,1023.83
2019-03-26T04:25:13.090Z,1023.82
2019-03-26T04:26:13.064Z,1023.87
2019-03-26T04:27:13.046Z,1023.85
2019-03-26T04:28:13.018Z,1023.91
2019-03-26T04:29:12.996Z,1023.92
2019-03-26T04:30:12.967Z,1023.92
2019-03-26T04:31:12.942Z,1023.91
2019-03-26T04:32:12.921Z,1023.87
2019-03-26T04:33:12.897Z,1023.87
2019-03-26T04:34:12.874Z,1023.89
2019-03-26T04:35:12.852Z,1023.86
2019-03-26T04:36:24.542Z,1023.85
2019-03-26T04:37:12.808Z,1023.86
2019-03-26T04:38:12.779Z,1023.87
2019-03-26T04:39:12.755Z,1023.87
2019-03-26T04:40:12.727Z,1023.88
2019-03-26T04:41:12.701Z,1023.87
2019-03-26T04:42:12.679Z,1023.87
2019-03-26T04:43:12.654Z,1023.83
2019-03-26T04:44:12.628Z,1023.83
2019-03-26T04:45:12.612Z,1023.78
2019-03-26T04:46:12.585Z,1023.81
2019-03-26T04:47:12.558Z,1023.83
2019-03-26T04:48:12.532Z,1023.88
2019-03-26T04:49:12.515Z,1023.86
2019-03-26T04:50:12.484Z,1023.88
2019-03-26T04:51:12.465Z,1023.91
2019-03-26T04:52:12.441Z,1023.93
2019-03-26T04:53:12.412Z,1023.94
2019-03-26T04:54:12.389Z,1023.93
2019-03-26T04:55:12.364Z,1023.94
2019-03-26T04:56:12.342Z,1023.94
2019-03-26T04:57:12.321Z,1023.93
2019-03-26T04:58:12.290Z,1023.95
2019-03-26T04:59:12.267Z,1023.95
2019-03-26T05:00:12.245Z,1023.98
2019-03-26T05:01:12.218Z,1023.99
2019-03-26T05:02:12.195Z,1023.97
2019-03-26T05:03:12.170Z,1023.99
2019-03-26T05:04:12.146Z,1023.98
2019-03-26T05:05:12.569Z,1023.95
2019-03-26T05:06:12.099Z,1023.99
2019-03-26T05:07:12.072Z,1023.99
2019-03-26T05:08:12.059Z,1024.01
2019-03-26T05:09:12.022Z,1023.95
2019-03-26T05:10:12.005Z,1023.98
2019-03-26T05:11:11.976Z,1023.96
2019-03-26T05:12:11.949Z,1023.96
2019-03-26T05:13:11.925Z,1023.97
2019-03-26T05:14:11.902Z,1023.94
2019-03-26T05:15:11.878Z,1023.93
2019-03-26T05:16:11.851Z,1023.86
2019-03-26T05:17:11.827Z,1023.90
2019-03-26T05:18:11.802Z,1023.90
2019-03-26T05:19:11.780Z,1023.87
2019-03-26T05:20:11.756Z,1023.86
2019-03-26T05:21:11.731Z,1023.84
2019-03-26T05:22:23.605Z,1023.81
2019-03-26T05:23:11.682Z,1023.87
2019-03-26T05:24:11.657Z,1023.83
2019-03-26T05:25:11.635Z,1023.83
2019-03-26T05:26:11.624Z,1023.85
2019-03-26T05:27:11.597Z,1023.82
2019-03-26T05:28:11.568Z,1023.81
2019-03-26T05:29:11.533Z,1023.83
2019-03-26T05:30:11.512Z,1023.82
2019-03-26T05:31:11.489Z,1023.85
2019-03-26T05:32:11.472Z,1023.82
2019-03-26T05:33:11.437Z,1023.86
2019-03-26T05:34:11.413Z,1023.88
2019-03-26T05:35:11.396Z,1023.92
2019-03-26T05:36:11.367Z,1023.92
2019-03-26T05:37:11.345Z,1023.92
2019-03-26T05:38:11.316Z,1023.92
2019-03-26T05:39:11.295Z,1023.92
2019-03-26T05:40:11.267Z,1023.91
2019-03-26T05:41:11.242Z,1023.92
2019-03-26T05:42:11.232Z,1023.91
2019-03-26T05:43:11.196Z,1023.92
2019-03-26T05:44:11.170Z,1023.87
2019-03-26T05:45:11.147Z,1023.87
2019-03-26T05:46:11.126Z,1023.86
2019-03-26T05:47:11.107Z,1023.81
2019-03-26T05:48:11.089Z,1023.79
2019-03-26T05:49:11.057Z,1023.81
2019-03-26T05:50:11.029Z,1023.82
2019-03-26T05:51:11.002Z,1023.88
2019-03-26T05:52:11.050Z,1023.86
2019-03-26T05:53:10.953Z,1023.86
2019-03-26T05:54:10.938Z,1023.79
2019-03-26T05:55:10.907Z,1023.81
2019-03-26T05:56:10.883Z,1023.76
2019-03-26T05:57:10.857Z,1023.75
2019-03-26T05:58:10.839Z,1023.80
2019-03-26T05:59:10.814Z,1023.77
2019-03-26T06:00:10.785Z,1023.74
2019-03-26T06:01:10.765Z,1023.77
2019-03-26T06:02:15.195Z,1023.78
2019-03-26T06:03:10.713Z,1023.78
2019-03-26T06:04:10.691Z,1023.75
2019-03-26T06:05:10.673Z,1023.77
2019-03-26T06:06:10.644Z,1023.76
2019-03-26T06:07:10.618Z,1023.79
2019-03-26T06:08:10.594Z,1023.77
2019-03-26T06:09:10.570Z,1023.77
2019-03-26T06:10:10.545Z,1023.75
2019-03-26T06:11:10.523Z,1023.74
2019-03-26T06:12:10.511Z,1023.75
2019-03-26T06:13:10.476Z,1023.74
2019-03-26T06:14:10.449Z,1023.74
2019-03-26T06:15:10.426Z,1023.77
2019-03-26T06:16:10.411Z,1023.78
2019-03-26T06:17:10.383Z,1023.80
2019-03-26T06:18:10.357Z,1023.81
2019-03-26T06:19:10.330Z,1023.84
2019-03-26T06:20:10.310Z,1023.86
2019-03-26T06:21:10.281Z,1023.86
2019-03-26T06:22:10.264Z,1023.88
2019-03-26T06:23:10.234Z,1023.92
2019-03-26T06:24:10.211Z,1023.95
2019-03-26T06:25:10.185Z,1023.93
2019-03-26T06:26:10.163Z,1023.92
2019-03-26T06:27:10.139Z,1023.90
2019-03-26T06:28:10.114Z,1023.89
2019-03-26T06:29:10.090Z,1023.90
2019-03-26T06:30:10.081Z,1023.88
2019-03-26T06:31:10.043Z,1023.88
2019-03-26T06:32:10.020Z,1023.89
2019-03-26T06:33:09.994Z,1023.96
2019-03-26T06:34:10.608Z,1023.98
2019-03-26T06:35:09.952Z,1023.93
2019-03-26T06:36:09.924Z,1023.91
2019-03-26T06:37:17.732Z,1023.93
2019-03-26T06:38:09.876Z,1023.95
2019-03-26T06:39:09.852Z,1023.98
2019-03-26T06:40:09.828Z,1024.03
2019-03-26T06:41:09.805Z,1024.02
2019-03-26T06:42:09.786Z,1024.00
2019-03-26T06:43:09.756Z,1024.04
2019-03-26T06:44:09.732Z,1024.03
2019-03-26T06:45:09.707Z,1024.08
2019-03-26T06:46:09.684Z,1024.08
2019-03-26T06:47:09.668Z,1024.13
2019-03-26T06:48:09.638Z,1024.18
2019-03-26T06:49:09.616Z,1024.16
2019-03-26T06:50:09.603Z,1024.20
2019-03-26T06:51:09.564Z,1024.18
2019-03-26T06:52:09.539Z,1024.22
2019-03-26T06:53:09.515Z,1024.28
2019-03-26T06:54:09.492Z,1024.23
2019-03-26T06:55:09.468Z,1024.27
2019-03-26T06:56:09.444Z,1024.28
2019-03-26T06:57:09.419Z,1024.23
2019-03-26T06:58:09.398Z,1024.24
2019-03-26T06:59:09.439Z,1024.24
2019-03-26T07:00:09.352Z,1024.24
2019-03-26T07:01:09.323Z,1024.25
2019-03-26T07:02:09.300Z,1024.26
2019-03-26T07:03:09.276Z,1024.31
2019-03-26T07:04:09.253Z,1024.30
2019-03-26T07:05:09.227Z,1024.32
2019-03-26T07:06:09.210Z,1024.32
2019-03-26T07:07:09.183Z,1024.33
2019-03-26T07:08:09.153Z,1024.29
2019-03-26T07:09:09.129Z,1024.33
2019-03-26T07:10:09.121Z,1024.36
2019-03-26T07:11:09.085Z,1024.38
2019-03-26T07:12:09.057Z,1024.41
2019-03-26T07:13:09.111Z,1024.41
2019-03-26T07:14:09.024Z,1024.39
2019-03-26T07:15:08.985Z,1024.43
2019-03-26T07:16:08.963Z,1024.44
2019-03-26T07:17:08.948Z,1024.44
2019-03-26T07:18:08.916Z,1024.44
2019-03-26T07:19:08.888Z,1024.41
2019-03-26T07:20:08.865Z,1024.43
2019-03-26T07:21:08.840Z,1024.46
2019-03-26T07:22:08.821Z,1024.50
2019-03-26T07:23:08.791Z,1024.47
2019-03-26T07:24:08.783Z,1024.53
2019-03-26T07:25:08.742Z,1024.52
2019-03-26T07:26:08.720Z,1024.50
2019-03-26T07:27:08.697Z,1024.51
2019-03-26T07:28:08.675Z,1024.54
2019-03-26T07:29:08.649Z,1024.54
2019-03-26T07:30:08.629Z,1024.52
2019-03-26T07:31:08.615Z,1024.55
2019-03-26T07:32:08.578Z,1024.49
2019-03-26T07:33:08.551Z,1024.43
2019-03-26T07:34:08.526Z,1024.50
2019-03-26T07:35:08.502Z,1024.47
2019-03-26T07:36:08.557Z,1024.49
2019-03-26T07:37:08.458Z,1024.46
2019-03-26T07:38:08.444Z,1024.50
2019-03-26T07:39:08.406Z,1024.49
2019-03-26T07:40:08.382Z,1024.51
2019-03-26T07:41:08.358Z,1024.46
2019-03-26T07:42:08.335Z,1024.54
2019-03-26T07:43:08.314Z,1024.49
2019-03-26T07:44:08.294Z,1024.53
2019-03-26T07:45:08.266Z,1024.54
2019-03-26T07:46:08.237Z,1024.54
2019-03-26T07:47:08.215Z,1024.59
2019-03-26T07:48:08.190Z,1024.62
2019-03-26T07:49:08.171Z,1024.61
2019-03-26T07:50:08.142Z,1024.66
2019-03-26T07:51:08.119Z,1024.66
2019-03-26T07:52:08.100Z,1024.66
2019-03-26T07:53:08.072Z,1024.65
2019-03-26T07:54:08.049Z,1024.65
2019-03-26T07:55:08.037Z,1024.60
2019-03-26T07:56:08.003Z,1024.64
2019-03-26T07:57:07.973Z,1024.62
2019-03-26T07:58:07.951Z,1024.59
2019-03-26T07:59:07.929Z,1024.60
2019-03-26T08:00:07.906Z,1024.61
2019-03-26T08:01:07.881Z,1024.61
2019-03-26T08:02:07.856Z,1024.59
2019-03-26T08:03:07.835Z,1024.63
2019-03-26T08:04:07.817Z,1024.57
2019-03-26T08:05:07.789Z,1024.56
2019-03-26T08:06:07.762Z,1024.54
2019-03-26T08:07:07.737Z,1024.58
2019-03-26T08:08:07.713Z,1024.60
2019-03-26T08:09:07.689Z,1024.65
2019-03-26T08:10:07.665Z,1024.67
2019-03-26T08:11:07.641Z,1024.66
2019-03-26T08:12:07.632Z,1024.64
2019-03-26T08:13:07.602Z,1024.64
2019-03-26T08:14:07.573Z,1024.61
2019-03-26T08:15:07.549Z,1024.63
2019-03-26T08:16:07.552Z,1024.58
2019-03-26T08:17:07.523Z,1024.62
2019-03-26T08:18:07.487Z,1024.58
2019-03-26T08:19:07.452Z,1024.60
2019-03-26T08:20:07.432Z,1024.58
2019-03-26T08:21:07.404Z,1024.55
2019-03-26T08:22:07.385Z,1024.57
2019-03-26T08:23:07.359Z,1024.56
2019-03-26T08:24:07.339Z,1024.61
2019-03-26T08:25:07.310Z,1024.56
2019-03-26T08:26:07.291Z,1024.55
2019-03-26T08:27:07.265Z,1024.54
2019-03-26T08:28:07.243Z,1024.53
2019-03-26T08:29:07.233Z,1024.56
2019-03-26T08:30:07.193Z,1024.64
2019-03-26T08:31:07.175Z,1024.58
2019-03-26T08:32:07.145Z,1024.60
2019-03-26T08:33:07.124Z,1024.60
2019-03-26T08:34:07.097Z,1024.54
2019-03-26T08:35:07.085Z,1024.53
2019-03-26T08:36:07.058Z,1024.51
2019-03-26T08:37:07.033Z,1024.48
2019-03-26T08:38:12.849Z,1024.45
2019-03-26T08:39:06.983Z,1024.43
2019-03-26T08:40:06.960Z,1024.45
2019-03-26T08:41:06.934Z,1024.44
2019-03-26T08:42:06.914Z,1024.46
2019-03-26T08:43:06.887Z,1024.47
2019-03-26T08:44:06.863Z,1024.44
2019-03-26T08:45:06.839Z,1024.48
2019-03-26T08:46:06.813Z,1024.54
2019-03-26T08:47:06.791Z,1024.51
2019-03-26T08:48:06.768Z,1024.47
2019-03-26T08:49:06.742Z,1024.54
2019-03-26T08:50:06.721Z,1024.60
2019-03-26T08:51:06.716Z,1024.58
2019-03-26T08:52:06.680Z,1024.60
2019-03-26T08:53:06.651Z,1024.64
2019-03-26T08:54:06.629Z,1024.60
2019-03-26T08:55:06.606Z,1024.59
2019-03-26T08:56:06.584Z,1024.57
2019-03-26T08:57:06.556Z,1024.57
2019-03-26T08:58:06.538Z,1024.63
2019-03-26T08:59:06.510Z,1024.61
2019-03-26T09:00:06.485Z,1024.62
2019-03-26T09:01:06.462Z,1024.61
2019-03-26T09:02:06.440Z,1024.66
2019-03-26T09:03:06.415Z,1024.68
2019-03-26T09:04:06.397Z,1024.70
2019-03-26T09:05:06.399Z,1024.69
2019-03-26T09:06:06.350Z,1024.66
2019-03-26T09:07:06.328Z,1024.65
2019-03-26T09:08:06.300Z,1024.63
2019-03-26T09:09:06.282Z,1024.63
2019-03-26T09:10:06.253Z,1024.63
2019-03-26T09:11:06.229Z,1024.57
2019-03-26T09:12:06.205Z,1024.58
2019-03-26T09:13:06.190Z,1024.57
2019-03-26T09:14:06.157Z,1024.60
2019-03-26T09:15:06.146Z,1024.62
2019-03-26T09:16:06.114Z,1024.60
2019-03-26T09:17:06.098Z,1024.70
2019-03-26T09:18:06.064Z,1024.65
2019-03-26T09:19:06.042Z,1024.61
2019-03-26T09:20:06.026Z,1024.70
2019-03-26T09:21:06.001Z,1024.71
2019-03-26T09:22:05.972Z,1024.70
2019-03-26T09:23:05.948Z,1024.68
2019-03-26T09:24:05.927Z,1024.66
2019-03-26T09:25:05.901Z,1024.72
2019-03-26T09:26:05.884Z,1024.72
2019-03-26T09:27:05.865Z,1024.71
2019-03-26T09:28:05.831Z,1024.64
2019-03-26T09:29:05.806Z,1024.70
2019-03-26T09:30:05.786Z,1024.68
2019-03-26T09:31:05.762Z,1024.59
2019-03-26T09:32:05.735Z,1024.63
2019-03-26T09:33:05.712Z,1024.59
2019-03-26T09:34:05.687Z,1024.64
2019-03-26T09:35:05.672Z,1024.55
2019-03-26T09:36:05.639Z,1024.57
2019-03-26T09:37:05.618Z,1024.55
2019-03-26T09:38:05.598Z,1024.57
2019-03-26T09:39:05.570Z,1024.56
2019-03-26T09:40:05.548Z,1024.57
2019-03-26T09:41:05.520Z,1024.63
2019-03-26T09:42:05.496Z,1024.61
2019-03-26T09:43:05.475Z,1024.62
2019-03-26T09:44:05.450Z,1024.60
2019-03-26T09:45:05.426Z,1024.62
2019-03-26T09:46:05.403Z,1024.62
2019-03-26T09:47:15.572Z,1024.58
2019-03-26T09:48:05.363Z,1024.59
2019-03-26T09:49:05.332Z,1024.57
2019-03-26T09:50:05.320Z,1024.57
2019-03-26T09:51:05.284Z,1024.57
2019-03-26T09:52:05.267Z,1024.56
2019-03-26T09:53:05.237Z,1024.52
2019-03-26T09:54:05.224Z,1024.52
2019-03-26T09:55:05.198Z,1024.52
2019-03-26T09:56:05.168Z,1024.49
2019-03-26T09:57:05.144Z,1024.53
2019-03-26T09:58:05.123Z,1024.48
2019-03-26T09:59:05.096Z,1024.49
2019-03-26T10:00:05.072Z,1024.49
2019-03-26T10:01:05.047Z,1024.52
2019-03-26T10:02:05.025Z,1024.47
2019-03-26T10:03:05.015Z,1024.47
2019-03-26T10:04:04.982Z,1024.48
2019-03-26T10:05:04.958Z,1024.46
2019-03-26T10:06:04.930Z,1024.50
2019-03-26T10:07:04.906Z,1024.50
2019-03-26T10:08:04.895Z,1024.52
2019-03-26T10:09:04.859Z,1024.47
2019-03-26T10:10:04.837Z,1024.45
2019-03-26T10:11:04.814Z,1024.47
2019-03-26T10:12:04.794Z,1024.45
2019-03-26T10:13:04.766Z,1024.41
2019-03-26T10:14:04.739Z,1024.36
2019-03-26T10:15:04.717Z,1024.39
2019-03-26T10:16:04.692Z,1024.37
2019-03-26T10:17:04.686Z,1024.44
2019-03-26T10:18:04.651Z,1024.40
2019-03-26T10:19:04.639Z,1024.38
2019-03-26T10:20:04.614Z,1024.41
2019-03-26T10:21:04.581Z,1024.43
2019-03-26T10:22:04.553Z,1024.46
2019-03-26T10:23:04.529Z,1024.39
2019-03-26T10:24:04.507Z,1024.43
2019-03-26T10:25:04.484Z,1024.38
2019-03-26T10:26:04.462Z,1024.46
2019-03-26T10:27:04.439Z,1024.40
2019-03-26T10:28:04.416Z,1024.44
2019-03-26T10:29:18.851Z,1024.46
2019-03-26T10:30:05.791Z,1024.41
2019-03-26T10:31:04.340Z,1024.40
2019-03-26T10:32:04.321Z,1024.36
2019-03-26T10:33:04.294Z,1024.37
2019-03-26T10:34:04.286Z,1024.40
2019-03-26T10:35:04.248Z,1024.40
2019-03-26T10:36:04.227Z,1024.40
2019-03-26T10:37:04.201Z,1024.34
2019-03-26T10:38:04.176Z,1024.34
2019-03-26T10:39:05.627Z,1024.38
2019-03-26T10:40:04.132Z,1024.32
2019-03-26T10:41:04.108Z,1024.27
2019-03-26T10:42:06.904Z,1024.33
2019-03-26T10:43:04.063Z,1024.33
2019-03-26T10:44:04.041Z,1024.29
2019-03-26T10:45:04.021Z,1024.28
2019-03-26T10:46:03.994Z,1024.26
2019-03-26T10:47:03.969Z,1024.25
2019-03-26T10:48:03.946Z,1024.22
2019-03-26T10:49:03.919Z,1024.19
2019-03-26T10:50:03.898Z,1024.15
2019-03-26T10:51:03.882Z,1024.17
2019-03-26T10:52:03.858Z,1024.20
2019-03-26T10:53:03.831Z,1024.18
2019-03-26T10:54:03.811Z,1024.09
2019-03-26T10:55:03.781Z,1024.10
2019-03-26T10:56:03.762Z,1024.07
2019-03-26T10:57:03.745Z,1024.13
2019-03-26T10:58:03.719Z,1024.13
2019-03-26T10:59:04.257Z,1024.09
2019-03-26T11:00:03.669Z,1024.09
2019-03-26T11:01:03.646Z,1024.09
2019-03-26T11:02:03.627Z,1024.11
2019-03-26T11:03:03.606Z,1024.06
2019-03-26T11:04:03.588Z,1024.01
2019-03-26T11:05:03.560Z,1024.05
2019-03-26T11:06:03.532Z,1024.03
2019-03-26T11:07:03.505Z,1023.98
2019-03-26T11:08:03.486Z,1023.95
2019-03-26T11:09:03.460Z,1023.93
2019-03-26T11:10:03.445Z,1023.96
2019-03-26T11:11:03.418Z,1023.93
2019-03-26T11:12:03.391Z,1023.92
2019-03-26T11:13:03.373Z,1023.90
2019-03-26T11:14:03.353Z,1023.92
2019-03-26T11:15:03.328Z,1023.98
2019-03-26T11:16:03.299Z,1023.88
2019-03-26T11:17:03.347Z,1023.96
2019-03-26T11:18:03.253Z,1023.95
2019-03-26T11:19:03.230Z,1023.92
2019-03-26T11:20:03.213Z,1023.92
2019-03-26T11:21:03.486Z,1023.93
2019-03-26T11:22:03.160Z,1023.88
2019-03-26T11:23:03.178Z,1023.92
2019-03-26T11:24:03.121Z,1023.94
2019-03-26T11:25:03.094Z,1023.99
2019-03-26T11:26:03.069Z,1024.02
2019-03-26T11:27:03.054Z,1024.01
2019-03-26T11:28:03.026Z,1024.00
2019-03-26T11:29:02.999Z,1023.96
2019-03-26T11:30:02.982Z,1024.05
2019-03-26T11:31:02.968Z,1024.13
2019-03-26T11:32:02.964Z,1024.04
2019-03-26T11:33:02.913Z,1024.07
2019-03-26T11:34:02.889Z,1024.06
2019-03-26T11:35:02.863Z,1024.02
2019-03-26T11:36:02.852Z,1024.02
2019-03-26T11:37:02.822Z,1024.06
2019-03-26T11:38:02.805Z,1024.05
2019-03-26T11:39:02.774Z,1023.98
2019-03-26T11:40:02.753Z,1024.00
2019-03-26T11:41:02.728Z,1024.07
2019-03-26T11:42:02.706Z,1023.97
2019-03-26T11:43:02.683Z,1023.97
2019-03-26T11:44:04.710Z,1024.01
2019-03-26T11:45:02.637Z,1024.04
2019-03-26T11:46:02.611Z,1023.98
2019-03-26T11:47:02.596Z,1023.98
2019-03-26T11:48:02.583Z,1023.97
2019-03-26T11:49:02.541Z,1023.97
2019-03-26T11:50:04.757Z,1023.98
2019-03-26T11:51:02.508Z,1023.96
2019-03-26T11:52:02.477Z,1023.97
2019-03-26T11:53:02.460Z,1024.10
2019-03-26T11:54:02.424Z,1024.05
2019-03-26T11:55:02.402Z,1024.12
2019-03-26T11:56:02.378Z,1024.12
2019-03-26T11:57:02.361Z,1024.18
2019-03-26T11:58:02.369Z,1024.26
2019-03-26T11:59:02.320Z,1024.16
2019-03-26T12:00:02.287Z,1024.25
2019-03-26T12:01:02.264Z,1024.18
2019-03-26T12:02:02.243Z,1024.17
2019-03-26T12:03:02.217Z,1024.17
2019-03-26T12:04:02.197Z,1024.25
2019-03-26T12:05:02.179Z,1024.14